Time;durP1;ratioP1;P1;durP2;ratioP2;P2;SDS_P1;SDS_P2;PMS_P1;PMS_P2;Temp;Humidity;BMP_temperature;BMP_pressure;BME280_temperature;BME280_humidity;BME280_pressure;Samples;Min_cycle;Max_cycle;Signal;HPM_P1;HPM_P2
2023/07/12 00:01:12;;;;;;;6.53;3.60;;;;;;;22.06;69.33;96174.81;5008707;28;20415;-71
2023/07/12 00:03:37;;;;;;;10.93;4.33;;;;;;;22.32;69.26;96204.50;5008506;28;20407;-70
2023/07/12 00:06:19;;;;;;;7.00;3.77;;;;;;;22.59;67.88;96229.59;5007951;28;20457;-71
2023/07/12 00:08:45;;;;;;;6.70;3.37;;;;;;;22.79;66.65;96219.66;5008329;28;20932;-71
2023/07/12 00:11:20;;;;;;;5.87;3.17;;;;;;;22.71;66.86;96187.47;5007949;28;20521;-71
2023/07/12 00:13:46;;;;;;;3.83;3.37;;;;;;;22.66;67.11;96171.88;5008014;28;20575;-70
2023/07/12 00:16:49;;;;;;;11.70;3.60;;;;;;;22.67;66.72;96191.41;5007737;28;21292;-71
2023/07/12 00:19:15;;;;;;;8.03;3.00;;;;;;;22.72;66.99;96199.84;5004405;28;20430;-71
2023/07/12 00:21:40;;;;;;;7.60;3.53;;;;;;;22.97;66.32;96175.06;5007652;28;20449;-71
2023/07/12 00:24:06;;;;;;;8.10;3.20;;;;;;;22.77;67.62;96162.78;5007733;28;20415;-70
2023/07/12 00:26:34;;;;;;;4.90;2.80;;;;;;;22.74;66.90;96142.53;5007386;28;20172;-70
2023/07/12 00:29:02;;;;;;;6.70;3.37;;;;;;;22.96;66.17;96153.81;5006937;28;20164;-70
2023/07/12 00:31:28;;;;;;;7.83;3.23;;;;;;;22.84;66.59;96155.84;5007256;28;20497;-71
2023/07/12 00:33:54;;;;;;;11.60;3.10;;;;;;;22.54;67.38;96123.06;5007465;28;20411;-71
2023/07/12 00:36:25;;;;;;;6.07;3.13;;;;;;;22.08;69.37;96105.22;5007420;28;20501;-71
2023/07/12 00:38:50;;;;;;;4.30;3.03;;;;;;;22.02;70.06;96108.47;5007147;28;20649;-71
2023/07/12 00:41:31;;;;;;;5.00;3.30;;;;;;;21.91;69.74;96099.63;5007142;28;20560;-70
2023/07/12 00:44:10;;;;;;;6.10;3.30;;;;;;;22.05;68.88;96117.03;5007636;28;20172;-71
2023/07/12 00:46:41;;;;;;;5.03;3.67;;;;;;;22.36;68.86;96135.53;5007512;28;20415;-71
2023/07/12 00:49:10;;;;;;;6.90;3.40;;;;;;;22.46;68.57;96109.59;4987941;28;20419;-70
2023/07/12 00:52:03;;;;;;;5.83;3.20;;;;;;;22.21;69.05;96110.28;4987735;28;20510;-71
2023/07/12 00:55:01;;;;;;;7.57;3.70;;;;;;;22.08;69.79;96113.22;4987867;28;20411;-70
2023/07/12 00:57:29;;;;;;;6.17;3.43;;;;;;;21.95;70.58;96094.84;4987652;28;20975;-71
2023/07/12 01:00:00;;;;;;;5.93;3.77;;;;;;;21.82;70.26;96084.47;4987482;28;20416;-72
2023/07/12 01:02:25;;;;;;;7.67;3.43;;;;;;;21.85;70.34;96094.00;4987714;28;20482;-71
2023/07/12 01:04:57;;;;;;;7.17;3.30;;;;;;;22.18;69.31;96098.84;4987549;28;20431;-71
2023/07/12 01:07:23;;;;;;;10.87;3.93;;;;;;;22.36;68.65;96106.13;4987609;28;20187;-72
2023/07/12 01:09:49;;;;;;;7.70;3.30;;;;;;;22.43;68.73;96099.19;4987240;28;20412;-70
2023/07/12 01:12:14;;;;;;;5.57;3.50;;;;;;;22.50;68.26;96081.56;4986913;28;20538;-70
2023/07/12 01:14:43;;;;;;;5.60;3.83;;;;;;;22.44;68.62;96062.59;4986969;28;20244;-71
2023/07/12 01:17:09;;;;;;;5.13;3.70;;;;;;;22.42;69.17;96022.66;4987041;28;20228;-71
2023/07/12 01:19:37;;;;;;;5.40;3.53;;;;;;;21.97;70.46;95983.34;4986598;28;20416;-71
2023/07/12 01:22:04;;;;;;;6.60;3.63;;;;;;;21.54;72.44;95953.56;4986988;28;20270;-71
2023/07/12 01:24:33;;;;;;;5.90;3.70;;;;;;;21.51;72.71;95924.47;4986994;28;20412;-71
2023/07/12 01:27:16;;;;;;;4.60;3.47;;;;;;;21.81;71.69;95905.66;4986990;28;20416;-71
2023/07/12 01:29:42;;;;;;;5.80;4.10;;;;;;;21.54;72.65;95901.97;4990940;28;20423;-70
2023/07/12 01:32:08;;;;;;;5.27;3.70;;;;;;;22.37;68.95;95894.78;4987176;28;20456;-71
2023/07/12 01:34:33;;;;;;;7.10;3.77;;;;;;;23.15;65.69;95914.63;4986967;28;20165;-70
2023/07/12 01:37:04;;;;;;;7.63;5.10;;;;;;;23.07;66.29;95952.06;4987079;28;20176;-71
2023/07/12 01:39:29;;;;;;;6.13;3.73;;;;;;;23.41;64.92;95933.38;4969154;28;20524;-70
2023/07/12 01:41:55;;;;;;;8.03;6.30;;;;;;;22.89;67.77;95944.88;4985801;28;20455;-70
2023/07/12 01:44:20;;;;;;;11.33;6.80;;;;;;;22.92;67.66;95925.84;4986450;28;20183;-70
2023/07/12 01:46:45;;;;;;;7.90;4.83;;;;;;;23.07;66.28;95903.91;4986671;28;20909;-70
2023/07/12 01:49:11;;;;;;;9.80;6.50;;;;;;;22.80;68.07;95927.09;5005951;28;20188;-72
2023/07/12 01:51:36;;;;;;;10.83;7.50;;;;;;;22.24;70.05;95917.53;5006128;28;20208;-70
2023/07/12 01:54:02;;;;;;;7.53;4.53;;;;;;;23.25;65.54;95902.84;5006100;28;20187;-70
2023/07/12 01:56:27;;;;;;;12.13;6.90;;;;;;;22.28;69.67;95913.56;5006537;28;20270;-71
2023/07/12 01:58:53;;;;;;;9.23;6.93;;;;;;;22.16;70.19;95964.53;5005932;28;20210;-71
2023/07/12 02:01:18;;;;;;;12.00;6.90;;;;;;;22.27;70.59;95942.09;5006122;28;20242;-71
2023/07/12 02:03:43;;;;;;;8.67;6.90;;;;;;;21.85;71.24;95920.38;5006237;28;20234;-71
2023/07/12 02:06:09;;;;;;;12.37;6.10;;;;;;;21.89;71.31;95927.13;5006615;28;20186;-71
2023/07/12 02:08:34;;;;;;;8.97;6.43;;;;;;;22.07;70.77;95911.13;5006425;28;20176;-70
2023/07/12 02:10:59;;;;;;;9.60;6.33;;;;;;;22.31;69.79;95908.75;5006118;28;20251;-71
2023/07/12 02:13:25;;;;;;;5.97;4.63;;;;;;;22.39;69.01;95913.31;5006331;28;20226;-71
2023/07/12 02:15:51;;;;;;;9.40;6.33;;;;;;;22.46;68.91;95917.06;5010632;28;20168;-71
2023/07/12 02:18:17;;;;;;;10.20;6.53;;;;;;;21.98;70.13;95916.38;5021966;28;20723;-71
2023/07/12 02:20:42;;;;;;;11.00;6.07;;;;;;;22.27;69.27;95896.66;5028019;28;20203;-71
2023/07/12 02:23:08;;;;;;;13.20;7.00;;;;;;;22.43;68.75;95906.69;5023648;28;20502;-71
2023/07/12 02:25:34;;;;;;;9.17;6.70;;;;;;;22.49;68.38;95916.78;5025777;28;20175;-71
2023/07/12 02:27:59;;;;;;;8.53;7.30;;;;;;;22.54;68.21;95910.97;5015974;28;20411;-71
2023/07/12 02:30:27;;;;;;;10.43;6.67;;;;;;;22.95;66.75;95904.09;5013419;28;20176;-69
2023/07/12 02:32:54;;;;;;;10.27;6.30;;;;;;;22.91;67.28;95894.72;5012095;28;20204;-72
2023/07/12 02:35:21;;;;;;;10.97;7.63;;;;;;;22.39;69.43;95895.47;5010607;28;20399;-71
2023/07/12 02:37:47;;;;;;;10.73;6.60;;;;;;;22.46;69.37;95895.69;5009805;28;20414;-70
2023/07/12 02:40:14;;;;;;;16.13;8.20;;;;;;;22.52;68.71;95884.38;5006345;28;20427;-72
2023/07/12 02:42:39;;;;;;;15.60;9.40;;;;;;;22.65;67.75;95889.31;5006808;28;20188;-70
2023/07/12 02:45:06;;;;;;;12.50;8.40;;;;;;;22.61;68.19;95891.47;5006788;28;20502;-70
2023/07/12 02:47:31;;;;;;;18.53;13.70;;;;;;;22.56;68.46;95904.47;5001117;28;20173;-72
2023/07/12 02:49:57;;;;;;;31.40;24.90;;;;;;;22.59;68.44;95909.50;4987565;28;20411;-72
2023/07/12 02:52:22;;;;;;;36.80;26.97;;;;;;;22.47;69.00;95904.56;4987517;28;20274;-72
2023/07/12 02:54:48;;;;;;;27.13;19.27;;;;;;;22.40;68.77;95886.44;4990263;28;20986;-71
2023/07/12 02:57:15;;;;;;;33.03;18.17;;;;;;;22.53;68.50;95874.50;4990137;28;20188;-70
2023/07/12 02:59:40;;;;;;;17.23;12.77;;;;;;;22.51;68.39;95874.69;4989874;28;20184;-71
2023/07/12 03:02:08;;;;;;;15.87;11.63;;;;;;;22.69;67.56;95873.81;4989789;28;20874;-71
2023/07/12 03:04:33;;;;;;;14.67;9.33;;;;;;;22.55;67.83;95876.03;4989872;28;20192;-70
2023/07/12 03:06:59;;;;;;;12.47;7.80;;;;;;;22.41;68.66;95876.59;4989541;28;20921;-71
2023/07/12 03:09:24;;;;;;;13.43;6.40;;;;;;;22.37;68.51;95873.38;4989116;28;20193;-70
2023/07/12 03:11:50;;;;;;;8.63;6.20;;;;;;;22.50;68.07;95864.97;4989527;28;20935;-71
2023/07/12 03:14:16;;;;;;;12.60;7.60;;;;;;;22.29;68.64;95859.94;4989449;28;20293;-72
2023/07/12 03:16:43;;;;;;;9.67;6.17;;;;;;;21.96;70.16;95858.75;4989311;28;20967;-70
2023/07/12 03:19:08;;;;;;;12.03;5.60;;;;;;;22.15;68.94;95855.94;4989264;28;20412;-70
2023/07/12 03:21:34;;;;;;;10.30;5.80;;;;;;;22.02;69.48;95846.63;4989291;28;20909;-69
2023/07/12 03:23:59;;;;;;;12.83;6.00;;;;;;;22.03;69.47;95850.97;4989515;28;20184;-69
2023/07/12 03:26:24;;;;;;;6.83;6.10;;;;;;;21.70;70.53;95853.28;4989425;28;20181;-70
2023/07/12 03:28:50;;;;;;;8.50;6.10;;;;;;;21.92;69.89;95860.03;4989039;28;20647;-70
2023/07/12 03:31:16;;;;;;;8.43;6.33;;;;;;;21.88;69.80;95847.97;4988854;28;20291;-68
2023/07/12 03:33:44;;;;;;;9.67;5.77;;;;;;;22.02;69.56;95849.31;4988939;28;20195;-70
2023/07/12 03:36:09;;;;;;;19.07;6.37;;;;;;;22.15;68.77;95842.56;4988933;28;20510;-70
2023/07/12 03:38:35;;;;;;;7.70;6.00;;;;;;;22.26;68.65;95846.06;4988930;28;20603;-69
2023/07/12 03:41:05;;;;;;;7.50;5.60;;;;;;;22.15;69.23;95837.22;4988570;28;20666;-68
2023/07/12 03:43:31;;;;;;;7.37;6.00;;;;;;;22.24;68.84;95834.66;4988729;28;20173;-71
2023/07/12 03:45:57;;;;;;;13.10;5.13;;;;;;;22.14;69.04;95853.44;4988723;28;20420;-70
2023/07/12 03:48:23;;;;;;;18.53;6.93;;;;;;;22.33;68.08;95865.84;5002192;28;20517;-70
2023/07/12 03:50:51;;;;;;;27.97;6.87;;;;;;;22.17;68.92;95861.97;5008177;28;20176;-70
2023/07/12 03:53:18;;;;;;;9.03;5.87;;;;;;;22.07;69.42;95853.19;5008006;28;20471;-70
2023/07/12 03:55:45;;;;;;;19.80;8.03;;;;;;;22.05;69.80;95857.84;5008303;28;20412;-70
2023/07/12 03:58:14;;;;;;;35.13;9.33;;;;;;;22.37;68.53;95865.38;5008349;28;20476;-71
2023/07/12 04:00:43;;;;;;;23.77;8.43;;;;;;;22.25;69.01;95861.22;5008137;28;20829;-70
2023/07/12 04:03:10;;;;;;;21.50;7.20;;;;;;;22.25;68.75;95869.25;5008468;28;20732;-69
2023/07/12 04:05:40;;;;;;;12.40;6.30;;;;;;;22.36;68.23;95873.53;5007564;28;20411;-70
2023/07/12 04:08:06;;;;;;;8.80;6.00;;;;;;;22.15;69.42;95863.09;5008454;28;20412;-69
2023/07/12 04:10:31;;;;;;;9.10;6.10;;;;;;;22.09;69.58;95855.72;5007969;28;20422;-70
2023/07/12 04:12:57;;;;;;;13.07;7.13;;;;;;;22.35;68.68;95859.34;5007953;28;20303;-69
2023/07/12 04:15:22;;;;;;;8.50;6.00;;;;;;;22.28;68.49;95866.28;5008289;28;20206;-70
2023/07/12 04:17:48;;;;;;;10.63;6.03;;;;;;;22.06;69.54;95870.19;5008222;28;20206;-70
2023/07/12 04:20:13;;;;;;;8.83;5.50;;;;;;;22.22;69.03;95860.72;5000558;28;20180;-70
2023/07/12 04:22:40;;;;;;;25.00;7.37;;;;;;;22.33;68.52;95853.28;5025521;28;20242;-69
2023/07/12 04:25:08;;;;;;;20.53;7.13;;;;;;;22.38;68.26;95850.16;5026644;28;20184;-69
2023/07/12 04:27:37;;;;;;;18.43;6.50;;;;;;;22.24;68.97;95856.88;5027218;28;20417;-70
2023/07/12 04:30:03;;;;;;;10.03;6.47;;;;;;;22.49;68.01;95865.13;5033322;28;20536;-69
2023/07/12 04:32:29;;;;;;;14.70;7.77;;;;;;;22.69;66.97;95863.13;5027528;28;20481;-70
2023/07/12 04:34:55;;;;;;;8.33;6.47;;;;;;;22.72;66.84;95860.13;5027293;28;20414;-69
2023/07/12 04:37:20;;;;;;;44.63;10.13;;;;;;;22.98;65.91;95854.78;5027252;28;20753;-69
2023/07/12 04:39:46;;;;;;;38.07;8.70;;;;;;;23.32;65.25;95864.75;5026661;28;20253;-71
2023/07/12 04:42:11;;;;;;;37.20;8.00;;;;;;;23.02;65.44;95865.06;5027434;28;20211;-70
2023/07/12 04:44:37;;;;;;;23.70;8.37;;;;;;;23.03;65.53;95863.22;5027084;28;20596;-70
2023/07/12 04:47:02;;;;;;;29.17;6.80;;;;;;;22.84;65.93;95861.53;5029703;28;20206;-70
2023/07/12 04:49:27;;;;;;;24.67;7.80;;;;;;;22.74;66.66;95860.81;5046337;28;20178;-70
2023/07/12 04:51:53;;;;;;;19.70;6.20;;;;;;;22.57;66.98;95871.38;5044212;28;20211;-69
2023/07/12 04:54:18;;;;;;;8.40;5.13;;;;;;;22.46;66.92;95860.09;5044204;28;20204;-69
2023/07/12 04:56:43;;;;;;;10.30;6.20;;;;;;;22.33;67.40;95873.84;5044343;28;20178;-69
2023/07/12 04:59:09;;;;;;;8.23;5.87;;;;;;;22.35;67.40;95878.03;5043826;28;20179;-68
2023/07/12 05:01:34;;;;;;;9.43;5.60;;;;;;;22.38;67.96;95877.72;5043963;28;20242;-69
2023/07/12 05:04:00;;;;;;;12.03;6.70;;;;;;;22.87;65.81;95889.81;5044092;28;20190;-70
2023/07/12 05:06:25;;;;;;;9.47;6.40;;;;;;;22.66;66.09;95892.84;5043869;28;20171;-70
2023/07/12 05:08:51;;;;;;;20.87;7.13;;;;;;;22.82;65.72;95891.16;5040990;28;20179;-70
2023/07/12 05:11:17;;;;;;;36.83;9.50;;;;;;;22.84;66.01;95899.00;5018589;28;20234;-69
2023/07/12 05:13:43;;;;;;;24.10;6.97;;;;;;;22.86;65.57;95888.16;5004870;28;20927;-69
2023/07/12 05:16:11;;;;;;;9.27;5.70;;;;;;;23.13;64.82;95895.25;5015522;28;20175;-69
2023/07/12 05:18:36;;;;;;;11.23;5.90;;;;;;;23.20;64.66;95902.47;5025243;28;20919;-68
2023/07/12 05:21:02;;;;;;;11.17;6.30;;;;;;;22.88;65.75;95923.63;5024665;28;20437;-68
2023/07/12 05:23:28;;;;;;;10.43;6.10;;;;;;;22.49;66.95;95926.63;5023696;28;20193;-68
2023/07/12 05:25:54;;;;;;;11.80;6.10;;;;;;;22.52;66.72;95929.84;5024109;28;20171;-70
2023/07/12 05:28:21;;;;;;;17.30;6.20;;;;;;;22.43;67.16;95944.13;5025402;28;20175;-69
2023/07/12 05:30:48;;;;;;;8.90;6.10;;;;;;;22.26;67.79;95947.63;5024551;28;20584;-68
2023/07/12 05:33:14;;;;;;;9.50;6.13;;;;;;;22.11;68.35;95939.22;5024417;28;20523;-69
2023/07/12 05:35:40;;;;;;;13.37;6.67;;;;;;;22.13;68.77;95927.38;5006866;28;20398;-69
2023/07/12 05:38:06;;;;;;;25.40;7.23;;;;;;;22.02;68.50;95926.78;5025772;28;20406;-69
2023/07/12 05:40:32;;;;;;;11.80;6.80;;;;;;;22.31;67.76;95934.63;5025070;28;20675;-69
2023/07/12 05:42:58;;;;;;;8.93;5.60;;;;;;;22.65;66.58;95931.28;5024658;28;20270;-70
2023/07/12 05:45:24;;;;;;;9.70;6.30;;;;;;;22.93;65.38;95932.84;5022630;28;20460;-70
2023/07/12 05:47:50;;;;;;;9.40;6.90;;;;;;;22.79;66.38;95944.09;5024200;28;20570;-70
2023/07/12 05:50:18;;;;;;;13.30;6.97;;;;;;;22.46;67.43;95946.47;5022005;28;20442;-70
2023/07/12 05:52:44;;;;;;;14.13;6.83;;;;;;;22.39;67.67;95948.94;5023851;28;20207;-70
2023/07/12 05:55:11;;;;;;;12.17;7.07;;;;;;;22.38;67.65;95955.25;5031260;28;20930;-70
2023/07/12 05:57:37;;;;;;;22.93;7.97;;;;;;;22.46;67.25;95956.34;5030063;28;20283;-70
2023/07/12 06:00:04;;;;;;;16.20;7.77;;;;;;;22.26;68.10;95945.78;5031204;28;20434;-67
2023/07/12 06:02:29;;;;;;;26.60;8.47;;;;;;;22.24;68.21;95952.28;5025066;28;20238;-68
2023/07/12 06:04:55;;;;;;;25.30;7.10;;;;;;;22.18;68.43;95957.19;5024540;28;20501;-68
2023/07/12 06:07:20;;;;;;;31.07;7.90;;;;;;;22.17;68.84;95970.69;5024961;28;20194;-70
2023/07/12 06:09:46;;;;;;;9.30;6.13;;;;;;;22.13;69.01;95986.19;5023416;28;20183;-69
2023/07/12 06:12:11;;;;;;;8.00;6.10;;;;;;;21.96;69.68;95998.50;5024250;28;20778;-68
2023/07/12 06:14:37;;;;;;;10.47;6.50;;;;;;;21.99;69.59;95998.22;5025644;28;20171;-67
2023/07/12 06:17:04;;;;;;;14.40;6.63;;;;;;;22.07;69.51;96013.50;5027751;28;20272;-70
2023/07/12 06:19:30;;;;;;;17.33;7.30;;;;;;;22.16;69.25;96003.78;5024057;28;20634;-68
2023/07/12 06:21:55;;;;;;;6.30;5.53;;;;;;;22.12;69.72;96010.41;5024000;28;20422;-70
2023/07/12 06:24:21;;;;;;;13.10;6.80;;;;;;;22.15;69.48;96008.25;5025766;28;20271;-69
2023/07/12 06:26:47;;;;;;;9.10;7.03;;;;;;;22.24;69.24;96014.59;5026853;28;20262;-68
2023/07/12 06:29:12;;;;;;;9.20;5.43;;;;;;;22.24;69.32;96017.25;5028872;28;20182;-68
2023/07/12 06:31:38;;;;;;;24.60;7.70;;;;;;;22.09;70.03;96008.88;5029305;28;20306;-71
2023/07/12 06:34:04;;;;;;;14.57;7.40;;;;;;;22.24;69.37;96014.59;5011892;28;20167;-69
2023/07/12 06:36:30;;;;;;;21.87;6.83;;;;;;;22.22;69.70;96010.38;5029178;28;20180;-69
2023/07/12 06:38:56;;;;;;;17.93;5.90;;;;;;;22.28;69.68;96009.81;5028969;28;20186;-68
2023/07/12 06:41:21;;;;;;;15.40;5.83;;;;;;;22.30;69.77;96013.13;5029294;28;20809;-68
2023/07/12 06:43:47;;;;;;;10.90;5.40;;;;;;;22.33;69.30;96018.22;5028692;28;20950;-68
2023/07/12 06:46:12;;;;;;;9.03;5.33;;;;;;;22.21;69.67;96014.88;5028871;28;20170;-71
2023/07/12 06:48:37;;;;;;;9.00;5.67;;;;;;;22.36;69.07;96004.53;5044446;28;20651;-68
2023/07/12 06:51:04;;;;;;;11.50;5.70;;;;;;;22.24;69.90;96003.06;5048381;28;20167;-70
2023/07/12 06:53:29;;;;;;;9.97;4.97;;;;;;;22.21;70.40;96019.41;5049052;28;20205;-69
2023/07/12 06:55:55;;;;;;;7.90;5.40;;;;;;;22.26;70.10;96019.78;5048742;28;20504;-67
2023/07/12 06:58:21;;;;;;;12.70;5.53;;;;;;;22.44;68.89;96014.47;5048814;28;20166;-69
2023/07/12 07:00:46;;;;;;;9.90;4.83;;;;;;;22.48;68.69;96010.50;5048114;28;20171;-68
2023/07/12 07:03:13;;;;;;;8.47;6.70;;;;;;;22.53;68.36;96011.72;5048386;28;20195;-69
2023/07/12 07:05:41;;;;;;;22.73;7.30;;;;;;;22.51;68.73;96020.91;5048201;28;20232;-69
2023/07/12 07:08:08;;;;;;;12.53;6.87;;;;;;;22.42;69.44;96025.34;5048038;28;20405;-69
2023/07/12 07:10:34;;;;;;;8.77;5.10;;;;;;;22.51;69.02;96019.09;5047977;28;20406;-70
2023/07/12 07:13:00;;;;;;;13.03;5.53;;;;;;;22.71;69.15;96025.13;5048386;28;21054;-68
2023/07/12 07:15:26;;;;;;;18.97;7.20;;;;;;;22.77;68.39;96019.19;5048450;28;20628;-69
2023/07/12 07:17:51;;;;;;;15.40;6.13;;;;;;;22.81;67.92;96025.06;5049617;28;20181;-68
2023/07/12 07:20:16;;;;;;;15.63;6.00;;;;;;;22.95;68.08;96018.34;5048723;28;20194;-70
2023/07/12 07:22:42;;;;;;;32.70;8.13;;;;;;;23.03;66.89;96019.28;5028439;28;20218;-66
2023/07/12 07:25:07;;;;;;;11.70;5.27;;;;;;;23.04;67.36;96025.47;5033396;28;20264;-67
2023/07/12 07:27:33;;;;;;;29.33;8.67;;;;;;;23.39;66.39;96027.28;5027851;28;20254;-69
2023/07/12 07:29:58;;;;;;;14.40;6.13;;;;;;;23.55;65.42;96023.88;5025443;28;20184;-69
2023/07/12 07:32:24;;;;;;;13.50;6.50;;;;;;;23.73;64.62;96023.81;5028890;28;20387;-69
2023/07/12 07:34:49;;;;;;;12.60;6.00;;;;;;;23.81;64.71;96017.69;5027211;28;20198;-68
2023/07/12 07:37:14;;;;;;;23.17;7.00;;;;;;;23.79;64.56;96017.03;5028205;28;20186;-69
2023/07/12 07:39:40;;;;;;;8.33;5.27;;;;;;;23.96;64.44;96012.59;5026808;28;20176;-69
2023/07/12 07:42:06;;;;;;;14.30;5.73;;;;;;;24.01;63.55;96013.78;5028122;28;20188;-69
2023/07/12 07:44:32;;;;;;;12.40;5.60;;;;;;;24.37;62.48;96007.41;5028678;28;20175;-70
2023/07/12 07:46:58;;;;;;;20.33;5.80;;;;;;;24.67;62.14;96012.22;5030215;28;20191;-69
2023/07/12 07:49:23;;;;;;;13.37;6.30;;;;;;;24.74;61.31;96007.03;5046599;28;20250;-70
2023/07/12 07:51:49;;;;;;;46.27;9.57;;;;;;;24.82;62.31;96009.72;5024719;28;20740;-68
2023/07/12 07:54:14;;;;;;;14.23;6.00;;;;;;;24.71;61.08;95996.63;5028232;28;21303;-68
2023/07/12 07:56:41;;;;;;;14.60;6.30;;;;;;;25.08;60.91;96009.56;5030490;28;20163;-68
2023/07/12 07:59:07;;;;;;;9.47;5.20;;;;;;;25.15;60.01;95999.84;5044013;28;20156;-69
2023/07/12 08:01:33;;;;;;;17.50;6.17;;;;;;;25.26;59.35;95998.72;5048944;28;20882;-70
2023/07/12 08:03:58;;;;;;;7.50;4.87;;;;;;;25.31;59.30;95999.03;5045269;28;20182;-68
2023/07/12 08:06:24;;;;;;;7.13;5.40;;;;;;;25.66;58.05;96001.53;5038214;28;20175;-69
2023/07/12 08:08:49;;;;;;;13.80;5.93;;;;;;;25.67;57.64;96004.03;5036838;28;20214;-68
2023/07/12 08:11:15;;;;;;;7.67;5.20;;;;;;;25.57;57.89;96003.38;5033937;28;20308;-69
2023/07/12 08:13:41;;;;;;;20.03;6.30;;;;;;;25.93;57.32;96003.00;5034517;28;20183;-67
2023/07/12 08:16:06;;;;;;;12.70;6.23;;;;;;;26.02;57.32;96007.34;5031833;28;20785;-68
2023/07/12 08:18:32;;;;;;;8.33;5.90;;;;;;;26.00;57.10;96020.13;5028111;28;20249;-68
2023/07/12 08:20:57;;;;;;;15.60;6.27;;;;;;;25.90;56.79;96017.63;5026544;28;20206;-69
2023/07/12 08:23:23;;;;;;;16.10;7.40;;;;;;;25.90;56.53;96022.16;5026865;28;20174;-70
2023/07/12 08:25:50;;;;;;;9.57;5.60;;;;;;;25.92;56.44;96022.84;5027550;28;20179;-68
2023/07/12 08:28:15;;;;;;;15.30;6.60;;;;;;;26.02;56.16;96033.41;5027906;28;20554;-70
2023/07/12 08:30:41;;;;;;;18.73;6.80;;;;;;;26.38;55.26;96031.91;5027134;28;20430;-69
2023/07/12 08:33:07;;;;;;;10.27;6.07;;;;;;;26.44;54.93;96026.88;5028699;28;20207;-70
2023/07/12 08:35:36;;;;;;;11.40;5.97;;;;;;;26.68;54.44;96020.53;5028003;28;20171;-69
2023/07/12 08:38:01;;;;;;;15.77;6.50;;;;;;;26.54;55.19;96017.59;5028245;28;20201;-72
2023/07/12 08:40:28;;;;;;;14.73;6.57;;;;;;;26.68;54.91;96018.69;5028612;28;20426;-71
2023/07/12 08:42:54;;;;;;;14.13;6.67;;;;;;;26.88;54.46;96007.47;5028153;28;20187;-73
2023/07/12 08:45:28;;;;;;;9.87;6.47;;;;;;;26.89;54.06;96004.59;5028203;28;20420;-71
2023/07/12 08:48:00;;;;;;;17.47;6.20;;;;;;;27.35;53.10;96001.06;5030259;28;20413;-71
2023/07/12 08:50:31;;;;;;;26.57;8.10;;;;;;;27.44;53.08;96008.91;5027621;28;20814;-72
2023/07/12 08:52:57;;;;;;;17.93;8.00;;;;;;;27.59;51.98;96011.66;5028214;28;20608;-72
2023/07/12 08:55:28;;;;;;;19.40;7.47;;;;;;;27.74;51.84;96002.75;5027916;28;20414;-71
2023/07/12 08:58:02;;;;;;;17.00;8.00;;;;;;;27.91;51.48;96000.75;5028128;28;20406;-74
2023/07/12 09:00:32;;;;;;;15.93;7.57;;;;;;;28.18;50.83;95991.16;5027514;28;20410;-73
2023/07/12 09:02:58;;;;;;;16.97;8.00;;;;;;;28.33;50.43;95992.00;5028311;28;20429;-72
2023/07/12 09:05:24;;;;;;;13.93;7.60;;;;;;;28.19;50.60;95985.56;5028100;28;20414;-71
2023/07/12 09:08:04;;;;;;;16.40;8.20;;;;;;;28.25;50.11;95984.84;5027157;28;20418;-71
2023/07/12 09:10:46;;;;;;;15.00;7.50;;;;;;;28.25;50.23;95990.22;5027191;28;20254;-71
2023/07/12 09:13:13;;;;;;;12.53;6.93;;;;;;;28.39;49.52;95975.03;5027454;28;20461;-72
2023/07/12 09:15:42;;;;;;;21.60;7.23;;;;;;;28.34;50.33;95977.44;5027256;28;20429;-72
2023/07/12 09:18:20;;;;;;;8.07;6.90;;;;;;;28.42;49.92;95971.13;5027198;28;20402;-72
2023/07/12 09:20:53;;;;;;;14.73;6.83;;;;;;;28.58;49.10;95964.69;5026737;28;20432;-70
2023/07/12 09:23:18;;;;;;;13.17;8.00;;;;;;;28.52;48.99;95963.59;5027192;28;20425;-73
2023/07/12 09:25:47;;;;;;;13.57;7.80;;;;;;;28.54;49.43;95969.66;5045541;28;20409;-72
2023/07/12 09:28:14;;;;;;;13.97;7.27;;;;;;;28.67;49.21;95958.97;5047460;28;20974;-73
2023/07/12 09:30:41;;;;;;;12.10;6.97;;;;;;;28.76;49.29;95962.41;5028966;28;20461;-71
2023/07/12 09:33:16;;;;;;;12.00;6.13;;;;;;;28.77;49.31;95952.44;5025222;28;20468;-73
2023/07/12 09:35:46;;;;;;;10.50;7.03;;;;;;;28.90;48.87;95950.69;5027524;28;20913;-72
2023/07/12 09:38:24;;;;;;;11.27;6.53;;;;;;;28.88;49.38;95941.94;5028761;28;20456;-71
2023/07/12 09:40:51;;;;;;;11.73;6.90;;;;;;;28.86;48.23;95941.31;5034942;28;20752;-69
2023/07/12 09:43:27;;;;;;;8.00;6.33;;;;;;;28.93;48.91;95944.91;5036904;28;20918;-72
2023/07/12 09:46:04;;;;;;;13.00;6.77;;;;;;;28.52;49.42;95947.41;5018943;28;20417;-69
2023/07/12 09:48:47;;;;;;;8.80;7.27;;;;;;;28.18;50.52;95934.50;5049176;28;20476;-70
2023/07/12 09:51:36;;;;;;;39.07;9.13;;;;;;;28.65;49.97;95930.50;5053466;28;20409;-71
2023/07/12 09:54:32;;;;;;;24.60;7.80;;;;;;;28.88;49.36;95927.63;5053571;28;20483;-72
2023/07/12 09:57:10;;;;;;;12.00;7.07;;;;;;;28.62;48.33;95925.50;5049070;28;20444;-70
2023/07/12 09:59:51;;;;;;;11.13;7.20;;;;;;;28.77;48.10;95928.13;5031905;28;20801;-72
2023/07/12 10:02:29;;;;;;;15.27;8.00;;;;;;;28.89;47.98;95923.88;5032741;28;20465;-71
2023/07/12 10:04:59;;;;;;;9.23;6.80;;;;;;;28.98;47.36;95928.13;5018320;28;20492;-72
2023/07/12 10:07:43;;;;;;;13.27;7.27;;;;;;;28.86;47.96;95925.09;5036684;28;20409;-71
2023/07/12 10:10:21;;;;;;;24.73;8.20;;;;;;;28.92;48.09;95932.44;5030651;28;20487;-72
2023/07/12 10:12:54;;;;;;;22.03;7.70;;;;;;;29.23;47.55;95935.88;5050124;28;20467;-71
2023/07/12 10:15:20;;;;;;;19.73;9.27;;;;;;;29.13;48.26;95931.63;5053290;28;20500;-70
2023/07/12 10:17:45;;;;;;;13.00;6.17;;;;;;;29.04;48.18;95929.22;5051051;28;20492;-72
2023/07/12 10:20:21;;;;;;;13.97;8.10;;;;;;;28.74;48.59;95932.03;5049879;28;20190;-71
2023/07/12 10:22:47;;;;;;;22.43;7.40;;;;;;;28.62;48.81;95941.69;5049750;28;20665;-72
2023/07/12 10:25:30;;;;;;;15.37;7.77;;;;;;;28.37;50.17;95939.31;5030498;28;20496;-71
2023/07/12 10:28:05;;;;;;;14.63;7.70;;;;;;;28.29;50.43;95944.81;5029957;28;20536;-70
2023/07/12 10:30:33;;;;;;;10.70;6.60;;;;;;;28.30;50.66;95935.72;5033612;28;20417;-71
2023/07/12 10:33:08;;;;;;;12.10;7.33;;;;;;;28.09;51.16;95944.56;5030214;28;20472;-72
2023/07/12 10:35:34;;;;;;;22.17;8.53;;;;;;;28.06;51.47;95944.94;5030600;28;20406;-70
2023/07/12 10:38:04;;;;;;;41.03;9.73;;;;;;;27.99;51.47;95946.69;5030492;28;20408;-71
2023/07/12 10:40:36;;;;;;;10.57;7.23;;;;;;;28.01;51.61;95941.97;5030402;28;20215;-69
2023/07/12 10:43:08;;;;;;;12.37;7.50;;;;;;;28.04;50.96;95945.13;5030491;28;20425;-70
2023/07/12 10:45:38;;;;;;;22.73;8.20;;;;;;;27.95;50.68;95940.84;5030225;28;20460;-71
2023/07/12 10:48:04;;;;;;;12.63;7.80;;;;;;;28.27;50.85;95936.06;5041365;28;20443;-72
2023/07/12 10:50:52;;;;;;;19.63;8.50;;;;;;;28.24;50.93;95928.34;5053561;28;20420;-72
2023/07/12 10:53:26;;;;;;;22.03;7.80;;;;;;;28.10;50.49;95937.31;5050494;28;21142;-70
2023/07/12 10:55:54;;;;;;;24.53;8.83;;;;;;;28.00;50.22;95937.59;5033183;28;20414;-70
2023/07/12 10:58:19;;;;;;;26.37;8.23;;;;;;;27.61;51.10;95936.81;5030082;28;20429;-70
2023/07/12 11:00:51;;;;;;;8.77;7.93;;;;;;;27.57;51.42;95937.38;5030053;28;20447;-71
2023/07/12 11:03:47;;;;;;;13.23;8.17;;;;;;;27.42;52.20;95934.66;5032439;28;20187;-72
2023/07/12 11:06:25;;;;;;;9.57;7.60;;;;;;;27.20;53.37;95937.22;5032615;28;20448;-70
2023/07/12 11:09:06;;;;;;;10.43;7.63;;;;;;;27.15;53.88;95934.22;5033655;28;20441;-71
2023/07/12 11:11:43;;;;;;;17.17;8.23;;;;;;;27.18;53.34;95935.69;5042226;28;20467;-71
2023/07/12 11:14:13;;;;;;;13.30;8.27;;;;;;;27.41;51.74;95924.91;5039117;28;20421;-70
2023/07/12 11:16:49;;;;;;;10.93;7.60;;;;;;;27.54;52.30;95919.69;5028507;28;20426;-74
2023/07/12 11:20:10;;;;;;;24.57;9.03;;;;;;;27.66;52.25;95915.53;5020024;28;20405;-70
2023/07/12 11:22:54;;;;;;;11.10;8.10;;;;;;;27.92;50.95;95930.41;4940332;29;20449;-71
2023/07/12 11:25:41;;;;;;;17.30;9.37;;;;;;;28.17;49.52;95919.34;5025895;28;20794;-70
2023/07/12 11:28:22;;;;;;;18.20;9.00;;;;;;;28.32;50.39;95922.84;5009438;28;20453;-71
2023/07/12 11:31:12;;;;;;;25.37;9.03;;;;;;;28.39;49.68;95918.34;5041670;28;20455;-70
2023/07/12 11:33:41;;;;;;;23.80;9.17;;;;;;;28.19;51.02;95906.50;5048876;28;20504;-71